Airfield :
LOGIN :

Register | Disclaimer

   EN    FR    IT 

 










Legend :    VFR   Marginal VFR   IFR   Intensive IFR   Very Intensive IFR
Visi :
Ceiling :
>= 8 km
>= 3000ft
5 to 8 km
1000 to 3000 ft
1500m to 5 km
500 to 1000 ft
800 to 1500m
200 to 500 ft
< 800m
< 200 ft
Symbols :   Thunderstorms  Fog  Heavy snow  Heavy precipitations  Wind > 20 kt
SIGMETs :     Misc.  Thunderstorms  Icing  Turbulence  Mountain Waves  Volcanic Ashes







- Airport Elevation : 622 ft
- IATA code : BRS
- Download approach charts


EGGD - Bristol Int.

CURRENT METAR :
  • 131950Z AUTO 08009KT 9999 NCD M00/M02 Q1017

EXPIRED METARs :
  • 131920Z AUTO 08012KT 9999 NCD 00/M01 Q1017
  • 131850Z AUTO 09015KT 9999 NCD 01/M01 Q1016
  • 131820Z AUTO 09017KT 9999 NCD 01/M01 Q1016
  • 131750Z AUTO 08013KT 9999 NCD 01/M00 Q1016
  • 131720Z AUTO 08014KT 9999 NCD 01/M00 Q1015

TAF TAF EGGD
Valid from the 13 at 18:00 until the 14 at 18:00 UTC


131654Z 1318/1418 09009KT 9999 SCT025
PROB40 1403/1412 6000
ATIS : +44 1275 473 666
No reported NOTAMs for that airfield.
1 SIGMET reported for the London FIR (EGTT) :
 
Severe turbulence
EGTT SIGMET 04 VALID 131900/132300 EGRR
EGTT LONDON FIR SEV TURB FCST W OF LINE N5212 W00544 - N4935 W00407 FL180/420 STNR NC=



MET'MAP, your aeronautical weather chart ! - Copyright ORBIFLY December 2007 - Disclaimer

ORBIFLY MET'MAP TEAM :

Programming & Development : Alexandra Zaïnal
Concept & Development : Baudouin d'Aumeries
Co-Development & Prog : Marc-Olivier Méhu
Technical & hardware support : Manuel Goepfert

Contact : metmap@orbifly.com




SOURCES & CREDITS :

   NOAA